createdAt,value
2022-12-20T00:02:05.599Z,4.20
2022-12-20T00:05:10.461Z,4.40
2022-12-20T00:08:15.616Z,4.57
2022-12-20T00:11:20.141Z,4.43
2022-12-20T00:14:24.555Z,3.60
2022-12-20T00:17:29.248Z,3.67
2022-12-20T00:20:33.901Z,3.88
2022-12-20T00:23:39.677Z,3.58
2022-12-20T00:26:44.209Z,3.80
2022-12-20T00:29:48.711Z,4.72
2022-12-20T00:32:53.541Z,4.47
2022-12-20T00:35:58.350Z,3.88
2022-12-20T00:39:04.062Z,4.95
2022-12-20T00:42:08.303Z,3.80
2022-12-20T00:45:12.775Z,4.10
2022-12-20T00:48:17.103Z,3.50
2022-12-20T00:51:28.829Z,3.33
2022-12-20T00:54:34.147Z,3.10
2022-12-20T00:57:38.883Z,4.43
2022-12-20T01:00:43.524Z,3.60
2022-12-20T01:03:48.658Z,3.40
2022-12-20T01:06:53.652Z,3.10
2022-12-20T01:09:58.747Z,3.60
2022-12-20T01:13:03.053Z,3.45
2022-12-20T01:16:12.144Z,3.60
2022-12-20T01:19:18.301Z,3.40
2022-12-20T01:22:22.849Z,3.20
2022-12-20T01:25:27.395Z,2.72
2022-12-20T01:28:33.217Z,3.03
2022-12-20T01:31:38.308Z,2.85
2022-12-20T01:34:43.142Z,3.10
2022-12-20T01:37:47.435Z,3.60
2022-12-20T01:40:53.172Z,3.28
2022-12-20T01:44:07.280Z,3.60
2022-12-20T01:47:13.525Z,3.40
2022-12-20T01:50:18.031Z,2.92
2022-12-20T01:53:24.420Z,3.00
2022-12-20T01:56:28.821Z,2.63
2022-12-20T01:59:37.423Z,2.88
2022-12-20T02:02:43.973Z,3.35
2022-12-20T02:05:48.541Z,3.17
2022-12-20T02:08:58.848Z,3.45
2022-12-20T02:12:13.233Z,3.05
2022-12-20T02:15:48.675Z,3.45
2022-12-20T02:19:28.215Z,3.33
2022-12-20T02:23:08.299Z,3.10
2022-12-20T02:26:31.131Z,3.67
2022-12-20T02:30:15.410Z,3.33
2022-12-20T02:33:23.953Z,3.60
2022-12-20T02:36:28.920Z,3.45
2022-12-20T02:39:35.845Z,3.38
2022-12-20T02:42:40.801Z,3.60
2022-12-20T02:45:45.629Z,3.70
2022-12-20T02:48:51.903Z,3.50
2022-12-20T02:51:59.892Z,3.45
2022-12-20T02:55:05.608Z,3.17
2022-12-20T02:58:26.648Z,3.13
2022-12-20T03:01:37.847Z,3.22
2022-12-20T03:04:43.540Z,2.97
2022-12-20T03:07:50.377Z,2.95
2022-12-20T03:10:58.027Z,2.92
2022-12-20T03:14:03.257Z,3.17
2022-12-20T03:17:09.185Z,3.67
2022-12-20T03:20:15.901Z,3.40
2022-12-20T03:23:22.141Z,2.90
2022-12-20T03:26:26.715Z,3.38
2022-12-20T03:29:35.727Z,3.13
2022-12-20T03:32:40.655Z,3.03
2022-12-20T03:35:48.146Z,3.45
2022-12-20T03:38:55.789Z,3.30
2022-12-20T03:42:01.944Z,3.47
2022-12-20T03:45:07.337Z,2.83
2022-12-20T03:48:12.496Z,3.38
2022-12-20T03:51:17.282Z,3.75
2022-12-20T03:54:22.851Z,3.30
2022-12-20T03:57:59.332Z,3.35
2022-12-20T04:01:28.411Z,3.67
2022-12-20T04:04:33.466Z,3.85
2022-12-20T04:07:44.364Z,3.60
2022-12-20T04:11:09.316Z,3.97
2022-12-20T04:14:16.188Z,3.50
2022-12-20T04:17:21.625Z,4.10
2022-12-20T04:20:26.685Z,3.45
2022-12-20T04:23:51.683Z,3.72
2022-12-20T04:26:55.968Z,4.47
2022-12-20T04:30:01.160Z,3.47
2022-12-20T04:33:05.643Z,4.05
2022-12-20T04:36:10.997Z,3.95
2022-12-20T04:39:17.653Z,3.63
2022-12-20T04:42:41.249Z,3.47
2022-12-20T04:45:49.578Z,3.47
2022-12-20T04:48:57.892Z,3.92
2022-12-20T04:52:22.986Z,3.92
2022-12-20T04:55:28.221Z,3.72
2022-12-20T04:58:34.726Z,3.50
2022-12-20T05:01:41.965Z,3.33
2022-12-20T05:04:47.345Z,3.40
2022-12-20T05:07:53.201Z,3.67
2022-12-20T05:10:58.162Z,3.60
2022-12-20T05:14:02.948Z,3.78
2022-12-20T05:17:09.549Z,3.67
2022-12-20T05:20:14.616Z,3.30
2022-12-20T05:23:40.454Z,3.10
2022-12-20T05:26:51.674Z,3.00
2022-12-20T05:29:57.492Z,3.97
2022-12-20T05:33:02.833Z,3.65
2022-12-20T05:36:09.268Z,3.72
2022-12-20T05:39:14.801Z,3.97
2022-12-20T05:42:21.319Z,3.88
2022-12-20T05:45:29.793Z,3.00
2022-12-20T05:48:41.287Z,3.58
2022-12-20T05:51:46.338Z,3.67
2022-12-20T05:55:09.703Z,3.55
2022-12-20T05:58:14.973Z,4.05
2022-12-20T06:01:29.635Z,3.75
2022-12-20T06:04:38.275Z,3.95
2022-12-20T06:07:50.553Z,3.28
2022-12-20T06:10:56.667Z,2.70
2022-12-20T06:14:01.843Z,2.92
2022-12-20T06:17:06.297Z,2.80
2022-12-20T06:20:12.432Z,3.55
2022-12-20T06:23:18.670Z,2.90
2022-12-20T06:26:36.610Z,3.47
2022-12-20T06:29:51.850Z,3.03
2022-12-20T06:32:59.416Z,3.20
2022-12-20T06:36:05.214Z,3.80
2022-12-20T06:39:10.258Z,3.28
2022-12-20T06:42:25.025Z,3.40
2022-12-20T06:45:29.611Z,3.67
2022-12-20T06:48:35.449Z,3.42
2022-12-20T06:51:42.635Z,3.53
2022-12-20T06:54:49.492Z,3.90
2022-12-20T06:57:55.443Z,4.18
2022-12-20T07:01:01.338Z,3.63
2022-12-20T07:04:06.277Z,4.00
2022-12-20T07:07:13.349Z,4.35
2022-12-20T07:10:18.167Z,3.28
2022-12-20T07:13:23.288Z,3.78
2022-12-20T07:16:27.825Z,3.50
2022-12-20T07:19:32.996Z,3.40
2022-12-20T07:22:37.853Z,3.47
2022-12-20T07:25:42.716Z,3.00
2022-12-20T07:28:48.427Z,3.40
2022-12-20T07:31:53.426Z,4.57
2022-12-20T07:34:58.171Z,3.33
2022-12-20T07:38:03.216Z,3.58
2022-12-20T07:41:14.005Z,3.42
2022-12-20T07:44:18.844Z,3.22
2022-12-20T07:47:23.635Z,2.78
2022-12-20T07:50:29.678Z,3.70
2022-12-20T07:53:40.617Z,2.85
2022-12-20T07:56:50.574Z,3.65
2022-12-20T07:59:59.282Z,3.20
2022-12-20T08:03:38.819Z,3.00
2022-12-20T08:06:44.202Z,3.50
2022-12-20T08:09:48.762Z,3.33
2022-12-20T08:12:54.422Z,3.00
2022-12-20T08:16:00.338Z,3.10
2022-12-20T08:19:04.922Z,3.15
2022-12-20T08:22:09.800Z,3.33
2022-12-20T08:25:14.340Z,3.38
2022-12-20T08:28:19.203Z,3.05
2022-12-20T08:31:24.364Z,3.30
2022-12-20T08:34:30.047Z,3.80
2022-12-20T08:37:35.177Z,4.28
2022-12-20T08:40:39.730Z,3.22
2022-12-20T08:43:44.940Z,3.30
2022-12-20T08:46:49.554Z,3.58
2022-12-20T08:49:54.314Z,3.08
2022-12-20T08:52:59.333Z,3.00
2022-12-20T08:56:22.558Z,2.85
2022-12-20T08:59:27.404Z,3.53
2022-12-20T09:02:32.583Z,3.35
2022-12-20T09:05:44.025Z,3.13
2022-12-20T09:08:49.755Z,3.15
2022-12-20T09:11:54.382Z,3.38
2022-12-20T09:14:58.935Z,2.72
2022-12-20T09:18:04.632Z,3.58
2022-12-20T09:21:11.441Z,3.20
2022-12-20T09:24:16.461Z,3.05
2022-12-20T09:27:21.303Z,3.33
2022-12-20T09:30:26.314Z,2.72
2022-12-20T09:33:32.969Z,3.88
2022-12-20T09:36:38.405Z,2.70
2022-12-20T09:39:43.285Z,3.28
2022-12-20T09:42:50.155Z,2.88
2022-12-20T09:45:59.187Z,3.55
2022-12-20T09:49:03.865Z,2.83
2022-12-20T09:52:58.228Z,2.90
2022-12-20T09:56:33.094Z,2.80
2022-12-20T09:59:49.252Z,2.88
2022-12-20T10:03:02.133Z,2.90
2022-12-20T10:06:37.355Z,2.78
2022-12-20T10:10:16.042Z,2.90
2022-12-20T10:13:37.981Z,3.05
2022-12-20T10:16:52.428Z,2.70
2022-12-20T10:20:27.934Z,2.80
2022-12-20T10:23:42.868Z,2.92
2022-12-20T10:26:51.862Z,2.75
2022-12-20T10:29:57.480Z,3.15
2022-12-20T10:33:02.936Z,3.20
2022-12-20T10:36:38.165Z,2.60
2022-12-20T10:39:48.176Z,2.97
2022-12-20T10:42:53.399Z,3.58
2022-12-20T10:46:08.542Z,2.78
2022-12-20T10:49:40.981Z,3.20
2022-12-20T10:53:02.640Z,3.45
2022-12-20T10:56:21.873Z,3.03
2022-12-20T10:59:36.169Z,3.08
2022-12-20T11:02:42.880Z,3.28
2022-12-20T11:06:02.552Z,2.97
2022-12-20T11:09:36.050Z,3.55
2022-12-20T11:13:00.627Z,3.75
2022-12-20T11:16:05.843Z,3.25
2022-12-20T11:19:37.645Z,3.22
2022-12-20T11:23:00.266Z,3.22
2022-12-20T11:26:52.780Z,3.53
2022-12-20T11:30:19.442Z,3.35
2022-12-20T11:33:51.192Z,3.40
2022-12-20T11:37:17.028Z,3.25
2022-12-20T11:40:38.968Z,3.85
2022-12-20T11:44:27.776Z,3.35
2022-12-20T11:47:52.189Z,3.90
2022-12-20T11:51:27.559Z,3.95
2022-12-20T11:54:46.151Z,3.50
2022-12-20T11:58:18.211Z,3.30
2022-12-20T12:01:38.706Z,3.10
2022-12-20T12:05:23.127Z,4.20
2022-12-20T12:08:48.359Z,3.88
2022-12-20T12:12:14.536Z,3.70
2022-12-20T12:15:48.844Z,3.80
2022-12-20T12:18:53.893Z,3.38
2022-12-20T12:22:06.496Z,3.42
2022-12-20T12:25:31.707Z,3.63
2022-12-20T12:28:36.983Z,3.63
2022-12-20T12:31:47.610Z,3.85
2022-12-20T12:35:48.123Z,4.20
2022-12-20T12:39:33.640Z,4.03
2022-12-20T12:42:59.424Z,4.13
2022-12-20T12:46:14.641Z,4.60
2022-12-20T12:49:23.858Z,4.95
2022-12-20T12:52:53.008Z,4.00
2022-12-20T12:56:19.238Z,4.93
2022-12-20T12:59:32.746Z,4.15
2022-12-20T13:02:51.654Z,3.92
2022-12-20T13:05:56.657Z,3.97
2022-12-20T13:09:04.540Z,4.35
2022-12-20T13:12:34.516Z,4.78
2022-12-20T13:15:42.035Z,4.45
2022-12-20T13:19:39.528Z,4.85
2022-12-20T13:23:12.934Z,4.75
2022-12-20T13:26:51.066Z,4.82
2022-12-20T13:30:22.383Z,5.13
2022-12-20T13:33:44.707Z,4.50
2022-12-20T13:36:59.777Z,3.85
2022-12-20T13:40:16.586Z,5.00
2022-12-20T13:43:23.967Z,4.47
2022-12-20T13:46:54.479Z,4.28
2022-12-20T13:50:22.469Z,4.00
2022-12-20T13:53:28.665Z,4.13
2022-12-20T13:56:51.633Z,4.28
2022-12-20T14:00:06.400Z,4.13
2022-12-20T14:03:31.595Z,4.47
2022-12-20T14:09:46.757Z,4.55
2022-12-20T14:12:53.488Z,4.30
2022-12-20T14:16:16.243Z,4.68
2022-12-20T14:19:21.097Z,4.43
2022-12-20T14:22:26.056Z,4.40
2022-12-20T14:25:46.284Z,4.80
2022-12-20T14:29:01.562Z,4.72
2022-12-20T14:32:06.478Z,4.38
2022-12-20T14:35:20.482Z,4.60
2022-12-20T14:38:33.354Z,4.38
2022-12-20T14:41:43.973Z,4.53
2022-12-20T14:44:48.863Z,5.03
2022-12-20T14:48:06.831Z,4.72
2022-12-20T14:51:13.648Z,5.40
2022-12-20T14:54:56.771Z,5.57
2022-12-20T14:57:57.421Z,5.38
2022-12-20T15:04:35.734Z,5.38
2022-12-20T15:07:41.937Z,5.30
2022-12-20T15:11:10.519Z,4.82
2022-12-20T15:14:36.802Z,5.05
2022-12-20T15:17:42.084Z,5.18
2022-12-20T15:20:55.517Z,5.00
2022-12-20T15:24:03.355Z,6.13
2022-12-20T15:27:14.112Z,4.63
2022-12-20T15:30:19.502Z,5.57
2022-12-20T15:33:29.089Z,4.47
2022-12-20T15:36:34.338Z,5.15
2022-12-20T15:39:39.084Z,5.68
2022-12-20T15:42:43.906Z,5.00
2022-12-20T15:45:53.526Z,5.30
2022-12-20T15:48:58.543Z,5.20
2022-12-20T15:52:03.227Z,5.25
2022-12-20T15:55:12.002Z,6.45
2022-12-20T15:58:17.006Z,7.00
2022-12-20T16:01:40.367Z,7.22
2022-12-20T16:04:45.908Z,6.60
2022-12-20T16:07:50.679Z,6.70
2022-12-20T16:10:55.586Z,7.20
2022-12-20T16:14:00.720Z,7.45
2022-12-20T16:17:05.451Z,7.50
2022-12-20T16:20:11.438Z,7.38
2022-12-20T16:23:24.813Z,7.25
2022-12-20T16:26:29.657Z,5.82
2022-12-20T16:29:34.310Z,7.38
2022-12-20T16:32:39.641Z,8.13
2022-12-20T16:35:49.683Z,7.68
2022-12-20T16:38:54.913Z,6.85
2022-12-20T16:42:01.889Z,8.75
2022-12-20T16:45:12.623Z,8.52
2022-12-20T16:48:17.183Z,9.23
2022-12-20T16:51:26.430Z,7.68
2022-12-20T16:54:32.026Z,7.68
2022-12-20T16:57:36.684Z,8.82
2022-12-20T17:00:41.894Z,8.00
2022-12-20T17:03:47.796Z,7.30
2022-12-20T17:06:52.794Z,8.23
2022-12-20T17:09:59.116Z,8.57
2022-12-20T17:13:03.778Z,8.27
2022-12-20T17:16:14.313Z,8.85
2022-12-20T17:19:19.911Z,7.60
2022-12-20T17:22:24.823Z,8.70
2022-12-20T17:25:35.386Z,6.70
2022-12-20T17:28:40.256Z,8.13
2022-12-20T17:31:46.944Z,6.97
2022-12-20T17:34:51.919Z,7.50
2022-12-20T17:37:57.877Z,8.85
2022-12-20T17:41:03.719Z,8.50
2022-12-20T17:44:20.806Z,8.30
2022-12-20T17:47:25.683Z,8.70
2022-12-20T17:50:30.489Z,9.27
2022-12-20T17:53:35.409Z,9.35
2022-12-20T17:56:40.259Z,8.77
2022-12-20T17:59:45.080Z,8.55
2022-12-20T18:02:50.279Z,8.63
2022-12-20T18:05:55.615Z,9.52
2022-12-20T18:09:00.727Z,9.15
2022-12-20T18:12:05.527Z,8.70
2022-12-20T18:15:11.817Z,8.30
2022-12-20T18:18:16.461Z,8.88
2022-12-20T18:21:23.718Z,8.90
2022-12-20T18:24:28.593Z,9.63
2022-12-20T18:27:41.617Z,9.32
2022-12-20T18:30:46.384Z,8.90
2022-12-20T18:33:57.318Z,8.90
2022-12-20T18:37:05.435Z,8.75
2022-12-20T18:40:10.462Z,8.35
2022-12-20T18:43:15.805Z,9.77
2022-12-20T18:46:23.143Z,10.20
2022-12-20T18:49:28.519Z,10.10
2022-12-20T18:52:33.117Z,10.80
2022-12-20T18:55:39.013Z,11.05
2022-12-20T18:58:44.671Z,9.73
2022-12-20T19:01:49.425Z,9.35
2022-12-20T19:04:54.012Z,9.52
2022-12-20T19:07:58.612Z,9.98
2022-12-20T19:11:10.639Z,9.88
2022-12-20T19:14:15.291Z,9.95
2022-12-20T19:17:20.094Z,10.25
2022-12-20T19:20:24.906Z,11.38
2022-12-20T19:23:29.388Z,10.48
2022-12-20T19:26:36.586Z,10.07
2022-12-20T19:29:40.940Z,10.40
2022-12-20T19:32:46.292Z,10.73
2022-12-20T19:35:56.070Z,11.05
2022-12-20T19:39:04.429Z,11.30
2022-12-20T19:42:26.582Z,10.38
2022-12-20T19:45:31.378Z,9.30
2022-12-20T19:48:36.607Z,9.73
2022-12-20T19:51:40.967Z,10.10
2022-12-20T19:54:45.654Z,10.90
2022-12-20T19:57:50.708Z,10.73
2022-12-20T20:00:55.756Z,11.10
2022-12-20T20:04:00.705Z,11.32
2022-12-20T20:07:05.372Z,10.93
2022-12-20T20:10:10.490Z,11.35
2022-12-20T20:13:15.119Z,10.05
2022-12-20T20:16:22.629Z,11.32
2022-12-20T20:19:27.915Z,11.85
2022-12-20T20:22:32.657Z,11.30
2022-12-20T20:25:37.629Z,11.27
2022-12-20T20:28:44.836Z,10.40
2022-12-20T20:31:50.432Z,11.20
2022-12-20T20:34:55.265Z,10.85
2022-12-20T20:38:01.375Z,11.13
2022-12-20T20:41:06.286Z,11.65
2022-12-20T20:44:12.435Z,11.63
2022-12-20T20:47:17.530Z,10.93
2022-12-20T20:50:22.526Z,11.77
2022-12-20T20:53:33.014Z,10.55
2022-12-20T20:56:38.490Z,10.20
2022-12-20T20:59:44.292Z,11.57
2022-12-20T21:02:50.726Z,12.02
2022-12-20T21:09:20.751Z,13.25
2022-12-20T21:12:25.496Z,13.52
2022-12-20T21:15:30.185Z,16.52
2022-12-20T21:18:34.857Z,18.08
2022-12-20T21:21:40.119Z,26.38
2022-12-20T21:24:45.262Z,35.90
2022-12-20T21:27:49.625Z,35.17
2022-12-20T21:31:05.958Z,25.80
2022-12-20T21:34:10.261Z,22.48
2022-12-20T21:37:14.907Z,18.95
2022-12-20T21:40:19.500Z,15.68
2022-12-20T21:43:24.037Z,14.77
2022-12-20T21:46:31.609Z,13.27
2022-12-20T21:49:36.149Z,14.40
2022-12-20T21:52:40.672Z,13.15
2022-12-20T21:55:45.436Z,11.45
2022-12-20T21:58:50.956Z,10.93
2022-12-20T22:01:56.106Z,11.20
2022-12-20T22:05:00.456Z,10.32
2022-12-20T22:08:05.137Z,10.55
2022-12-20T22:11:13.394Z,10.27
2022-12-20T22:14:17.759Z,10.60
2022-12-20T22:17:22.784Z,9.52
2022-12-20T22:20:27.294Z,9.52
2022-12-20T22:23:32.423Z,10.00
2022-12-20T22:26:40.824Z,8.98
2022-12-20T22:29:45.338Z,8.35
2022-12-20T22:32:49.828Z,8.52
2022-12-20T22:35:54.298Z,9.48
2022-12-20T22:38:59.012Z,11.07
2022-12-20T22:42:03.831Z,12.00
2022-12-20T22:45:09.791Z,11.85
2022-12-20T22:48:14.638Z,10.88
2022-12-20T22:51:22.216Z,11.65
2022-12-20T22:54:26.735Z,11.20
2022-12-20T22:57:34.363Z,11.75
2022-12-20T23:00:38.751Z,12.32
2022-12-20T23:03:44.357Z,12.68
2022-12-20T23:06:48.778Z,12.18
2022-12-20T23:09:53.423Z,12.70
2022-12-20T23:13:16.488Z,11.85
2022-12-20T23:16:20.972Z,13.15
2022-12-20T23:19:25.652Z,12.45
2022-12-20T23:22:40.048Z,13.02
2022-12-20T23:28:49.063Z,12.50
2022-12-20T23:31:53.896Z,13.80
2022-12-20T23:34:58.747Z,15.60
2022-12-20T23:38:03.341Z,15.50
2022-12-20T23:41:10.741Z,14.77
2022-12-20T23:44:15.509Z,16.23
2022-12-20T23:47:19.922Z,17.73
2022-12-20T23:50:24.555Z,17.20
2022-12-20T23:53:31.473Z,17.60
2022-12-20T23:56:35.889Z,17.83
2022-12-20T23:59:40.699Z,17.27
